createdAt,value
2023-06-13T00:00:51.785Z,94.02
2023-06-13T00:01:51.267Z,94.02
2023-06-13T00:02:52.383Z,94.12
2023-06-13T00:03:51.373Z,94.12
2023-06-13T00:05:51.509Z,94.41
2023-06-13T00:06:50.946Z,94.79
2023-06-13T00:07:51.309Z,94.12
2023-06-13T00:08:50.727Z,93.35
2023-06-13T00:09:50.651Z,93.84
2023-06-13T00:10:50.620Z,93.55
2023-06-13T00:11:50.510Z,94.21
2023-06-13T00:12:50.669Z,93.64
2023-06-13T00:13:50.337Z,94.12
2023-06-13T00:14:50.261Z,94.31
2023-06-13T00:15:50.190Z,94.41
2023-06-13T00:16:50.183Z,94.21
2023-06-13T00:17:50.116Z,94.60
2023-06-13T00:18:50.056Z,95.61
2023-06-13T00:19:50.227Z,95.61
2023-06-13T00:20:50.140Z,95.17
2023-06-13T00:25:49.408Z,95.22
2023-06-13T00:26:49.331Z,94.36
2023-06-13T00:27:49.254Z,93.84
2023-06-13T00:28:49.177Z,94.74
2023-06-13T00:29:49.095Z,94.74
2023-06-13T00:30:49.067Z,95.70
2023-06-13T00:31:48.939Z,94.74
2023-06-13T00:32:49.020Z,94.93
2023-06-13T00:33:48.790Z,94.84
2023-06-13T00:34:48.715Z,94.84
2023-06-13T00:35:48.631Z,95.32
2023-06-13T00:36:48.558Z,95.70
2023-06-13T00:37:48.516Z,95.89
2023-06-13T00:38:48.395Z,95.41
2023-06-13T00:39:48.317Z,95.98
2023-06-13T00:40:48.249Z,95.79
2023-06-13T00:41:48.162Z,95.41
2023-06-13T00:42:48.088Z,95.79
2023-06-13T00:43:48.020Z,95.61
2023-06-13T00:44:47.928Z,95.98
2023-06-13T00:45:47.851Z,95.98
2023-06-13T00:46:47.816Z,95.79
2023-06-13T00:47:47.730Z,95.89
2023-06-13T00:48:47.636Z,96.66
2023-06-13T00:49:47.541Z,96.94
2023-06-13T00:50:47.707Z,96.75
2023-06-13T00:51:47.384Z,96.75
2023-06-13T00:52:47.302Z,96.70
2023-06-13T00:53:47.226Z,96.27
2023-06-13T00:54:47.147Z,95.89
2023-06-13T00:55:47.128Z,96.08
2023-06-13T00:56:47.002Z,95.41
2023-06-13T00:57:46.913Z,94.46
2023-06-13T00:58:46.834Z,95.12
2023-06-13T00:59:46.767Z,94.36
2023-06-13T01:00:46.928Z,94.26
2023-06-13T01:01:46.762Z,94.31
2023-06-13T01:02:46.546Z,94.41
2023-06-13T01:03:46.448Z,94.21
2023-06-13T01:04:46.712Z,93.93
2023-06-13T01:05:46.302Z,94.02
2023-06-13T01:06:46.227Z,94.31
2023-06-13T01:07:46.138Z,95.27
2023-06-13T01:08:46.213Z,95.27
2023-06-13T01:09:46.182Z,94.89
2023-06-13T01:10:45.900Z,95.46
2023-06-13T01:11:45.826Z,95.51
2023-06-13T01:12:45.744Z,95.12
2023-06-13T01:13:46.119Z,96.18
2023-06-13T01:14:45.589Z,97.13
2023-06-13T01:15:45.511Z,96.47
2023-06-13T01:16:45.496Z,96.27
2023-06-13T01:17:45.431Z,95.98
2023-06-13T01:18:45.289Z,95.98
2023-06-13T01:19:45.206Z,96.84
2023-06-13T01:20:45.146Z,96.47
2023-06-13T01:21:45.044Z,97.42
2023-06-13T01:22:44.967Z,97.52
2023-06-13T01:23:45.430Z,97.47
2023-06-13T01:24:44.816Z,97.47
2023-06-13T01:25:44.733Z,97.18
2023-06-13T01:26:44.868Z,98.13
2023-06-13T01:27:44.574Z,97.66
2023-06-13T01:28:44.498Z,98.13
2023-06-13T01:29:44.722Z,99.09
2023-06-13T01:30:44.376Z,98.61
2023-06-13T01:31:44.361Z,98.23
2023-06-13T01:32:44.266Z,98.13
2023-06-13T01:33:44.105Z,97.94
2023-06-13T01:34:44.027Z,98.33
2023-06-13T01:35:43.950Z,98.08
2023-06-13T01:36:43.895Z,98.08
2023-06-13T01:38:43.722Z,98.66
2023-06-13T01:39:43.676Z,98.66
2023-06-13T01:41:44.121Z,98.28
2023-06-13T01:43:43.416Z,98.37
2023-06-13T01:45:43.230Z,98.08
2023-06-13T01:46:43.340Z,98.28
2023-06-13T01:47:55.988Z,99.33
2023-06-13T01:48:43.182Z,99.43
2023-06-13T01:49:42.901Z,98.85
2023-06-13T01:50:42.781Z,99.43
2023-06-13T01:51:42.693Z,99.52
2023-06-13T01:52:42.635Z,99.90
2023-06-13T01:53:42.539Z,99.52
2023-06-13T01:54:42.672Z,99.99
2023-06-13T01:55:42.381Z,99.76
2023-06-13T01:56:42.340Z,99.99
2023-06-13T01:57:42.220Z,99.99
2023-06-13T01:58:42.180Z,99.99
2023-06-13T01:59:42.303Z,99.99
2023-06-13T02:00:41.985Z,99.99
2023-06-13T02:01:41.937Z,99.99
2023-06-13T02:02:41.950Z,99.99
2023-06-13T02:03:41.782Z,99.99
2023-06-13T02:04:41.670Z,99.99
2023-06-13T02:05:41.602Z,99.99
2023-06-13T02:06:41.549Z,99.99
2023-06-13T02:07:41.433Z,99.99
2023-06-13T02:08:41.408Z,99.99
2023-06-13T02:09:41.319Z,99.99
2023-06-13T02:10:41.231Z,99.99
2023-06-13T02:11:41.353Z,99.99
2023-06-13T02:12:41.288Z,99.99
2023-06-13T02:13:41.013Z,99.99
2023-06-13T02:15:40.846Z,99.99
2023-06-13T02:16:41.308Z,99.99
2023-06-13T02:18:40.798Z,99.99
2023-06-13T02:19:40.940Z,99.95
2023-06-13T02:20:40.697Z,99.95
2023-06-13T02:21:40.966Z,99.99
2023-06-13T02:22:40.484Z,99.99
2023-06-13T02:23:40.241Z,99.99
2023-06-13T02:24:40.345Z,99.99
2023-06-13T02:25:40.037Z,99.99
2023-06-13T02:26:39.930Z,99.99
2023-06-13T02:27:39.885Z,99.99
2023-06-13T02:28:39.812Z,99.99
2023-06-13T02:29:39.759Z,99.99
2023-06-13T02:30:39.645Z,99.99
2023-06-13T02:31:39.559Z,99.99
2023-06-13T02:32:39.452Z,99.99
2023-06-13T02:33:39.574Z,99.99
2023-06-13T02:34:39.326Z,99.99
2023-06-13T02:35:39.210Z,99.99
2023-06-13T02:36:39.135Z,99.99
2023-06-13T02:37:39.060Z,99.99
2023-06-13T02:38:39.008Z,99.99
2023-06-13T02:39:38.930Z,99.99
2023-06-13T02:40:38.886Z,99.99
2023-06-13T02:41:38.975Z,99.99
2023-06-13T02:42:38.894Z,99.99
2023-06-13T02:43:38.671Z,99.99
2023-06-13T02:45:38.677Z,99.99
2023-06-13T02:46:38.361Z,99.99
2023-06-13T02:47:38.363Z,99.99
2023-06-13T02:48:38.523Z,99.99
2023-06-13T02:49:38.136Z,99.99
2023-06-13T02:50:38.028Z,99.99
2023-06-13T02:52:37.865Z,99.99
2023-06-13T02:53:37.788Z,99.99
2023-06-13T02:54:37.744Z,99.99
2023-06-13T02:55:37.663Z,99.99
2023-06-13T02:56:37.616Z,99.99
2023-06-13T02:57:37.470Z,99.99
2023-06-13T02:58:37.426Z,99.99
2023-06-13T03:00:37.248Z,99.99
2023-06-13T03:01:37.198Z,99.99
2023-06-13T03:02:37.143Z,99.99
2023-06-13T03:03:37.035Z,99.99
2023-06-13T03:04:36.936Z,99.99
2023-06-13T03:05:36.871Z,99.99
2023-06-13T03:06:36.754Z,99.99
2023-06-13T03:07:36.677Z,99.99
2023-06-13T03:08:36.603Z,99.99
2023-06-13T03:09:36.527Z,99.99
2023-06-13T03:10:36.440Z,99.99
2023-06-13T03:11:36.557Z,99.99
2023-06-13T03:12:36.296Z,99.99
2023-06-13T03:13:36.209Z,99.99
2023-06-13T03:14:36.124Z,99.99
2023-06-13T03:15:36.050Z,99.99
2023-06-13T03:16:36.031Z,99.99
2023-06-13T03:17:35.950Z,99.99
2023-06-13T03:18:35.800Z,99.99
2023-06-13T03:19:35.732Z,99.99
2023-06-13T03:20:35.640Z,99.99
2023-06-13T03:21:35.561Z,99.99
2023-06-13T03:22:35.978Z,99.99
2023-06-13T03:23:35.477Z,99.99
2023-06-13T03:24:35.325Z,99.99
2023-06-13T03:25:35.247Z,99.99
2023-06-13T03:26:35.161Z,99.99
2023-06-13T03:27:35.099Z,99.99
2023-06-13T03:28:35.023Z,99.99
2023-06-13T03:29:34.931Z,99.99
2023-06-13T03:30:34.937Z,99.99
2023-06-13T03:31:34.773Z,99.99
2023-06-13T03:32:34.736Z,99.99
2023-06-13T03:33:34.603Z,99.99
2023-06-13T03:34:34.528Z,99.99
2023-06-13T03:35:34.445Z,99.99
2023-06-13T03:36:34.365Z,99.99
2023-06-13T03:37:34.284Z,99.99
2023-06-13T03:38:34.207Z,99.99
2023-06-13T03:39:34.276Z,99.99
2023-06-13T03:40:34.449Z,99.99
2023-06-13T03:41:34.011Z,99.99
2023-06-13T03:42:33.888Z,99.99
2023-06-13T03:43:33.809Z,99.99
2023-06-13T03:44:33.744Z,99.99
2023-06-13T03:45:34.135Z,99.99
2023-06-13T03:46:33.566Z,99.99
2023-06-13T03:47:33.656Z,99.99
2023-06-13T03:48:33.921Z,99.99
2023-06-13T03:49:33.454Z,99.99
2023-06-13T03:50:33.248Z,99.99
2023-06-13T03:51:33.178Z,99.99
2023-06-13T03:52:33.088Z,99.99
2023-06-13T03:53:33.013Z,99.99
2023-06-13T03:54:32.931Z,99.99
2023-06-13T03:55:32.859Z,99.99
2023-06-13T03:56:32.784Z,99.99
2023-06-13T03:57:32.695Z,99.99
2023-06-13T03:58:32.612Z,99.99
2023-06-13T03:59:32.698Z,99.99
2023-06-13T04:00:32.476Z,99.99
2023-06-13T04:01:32.376Z,99.99
2023-06-13T04:02:32.375Z,99.99
2023-06-13T04:03:32.333Z,99.99
2023-06-13T04:04:32.143Z,99.99
2023-06-13T04:05:32.082Z,99.99
2023-06-13T04:06:31.994Z,99.99
2023-06-13T04:07:31.898Z,99.99
2023-06-13T04:08:31.819Z,99.99
2023-06-13T04:09:31.786Z,99.99
2023-06-13T04:10:31.657Z,99.99
2023-06-13T04:11:31.581Z,99.99
2023-06-13T04:12:31.530Z,99.99
2023-06-13T04:13:31.630Z,99.99
2023-06-13T04:14:31.340Z,99.99
2023-06-13T04:17:31.169Z,99.99
2023-06-13T04:18:31.077Z,99.99
2023-06-13T04:19:30.948Z,99.99
2023-06-13T04:20:30.867Z,99.99
2023-06-13T04:21:31.035Z,99.99
2023-06-13T04:22:30.704Z,99.99
2023-06-13T04:23:30.983Z,99.99
2023-06-13T04:24:31.063Z,99.99
2023-06-13T04:25:30.466Z,99.99
2023-06-13T04:26:30.391Z,99.99
2023-06-13T04:27:30.307Z,99.99
2023-06-13T04:28:30.477Z,99.99
2023-06-13T04:29:30.686Z,99.99
2023-06-13T04:30:30.081Z,99.99
2023-06-13T04:31:30.036Z,99.99
2023-06-13T04:33:30.305Z,99.99
2023-06-13T04:34:29.787Z,99.99
2023-06-13T04:37:29.533Z,99.99
2023-06-13T04:38:29.434Z,99.99
2023-06-13T04:39:29.366Z,99.99
2023-06-13T04:40:29.275Z,99.99
2023-06-13T04:41:29.195Z,99.99
2023-06-13T04:42:29.118Z,99.99
2023-06-13T04:43:29.036Z,99.99
2023-06-13T04:44:28.966Z,99.99
2023-06-13T04:45:28.883Z,99.99
2023-06-13T04:46:28.839Z,99.99
2023-06-13T04:47:38.318Z,99.99
2023-06-13T04:48:28.673Z,99.99
2023-06-13T04:49:28.584Z,99.99
2023-06-13T04:50:28.490Z,99.99
2023-06-13T04:51:28.556Z,99.99
2023-06-13T04:52:28.330Z,99.99
2023-06-13T04:53:28.244Z,99.99
2023-06-13T04:54:28.167Z,99.99
2023-06-13T04:55:28.091Z,99.99
2023-06-13T04:56:28.009Z,99.99
2023-06-13T04:57:27.932Z,99.99
2023-06-13T04:58:27.852Z,99.99
2023-06-13T04:59:27.776Z,99.99
2023-06-13T05:00:27.707Z,99.99
2023-06-13T05:01:27.702Z,99.99
2023-06-13T05:02:27.852Z,99.99
2023-06-13T05:03:27.470Z,99.99
2023-06-13T05:04:27.392Z,99.99
2023-06-13T05:05:27.322Z,99.99
2023-06-13T05:06:27.265Z,99.99
2023-06-13T05:07:27.154Z,99.99
2023-06-13T05:08:27.296Z,99.99
2023-06-13T05:09:27.000Z,99.99
2023-06-13T05:10:26.917Z,99.99
2023-06-13T05:11:26.937Z,99.99
2023-06-13T05:12:26.771Z,99.99
2023-06-13T05:13:26.680Z,99.99
2023-06-13T05:14:26.604Z,99.99
2023-06-13T05:15:26.526Z,99.99
2023-06-13T05:16:26.548Z,99.99
2023-06-13T05:17:26.401Z,99.99
2023-06-13T05:18:26.317Z,99.99
2023-06-13T05:19:26.221Z,99.99
2023-06-13T05:20:26.132Z,99.99
2023-06-13T05:21:26.283Z,99.99
2023-06-13T05:22:25.979Z,99.99
2023-06-13T05:23:25.901Z,99.99
2023-06-13T05:24:25.916Z,99.99
2023-06-13T05:25:28.166Z,99.99
2023-06-13T05:26:25.682Z,99.99
2023-06-13T05:27:25.625Z,99.99
2023-06-13T05:28:25.507Z,99.99
2023-06-13T05:29:25.469Z,99.99
2023-06-13T05:30:25.360Z,99.99
2023-06-13T05:31:25.369Z,99.99
2023-06-13T05:32:25.263Z,99.99
2023-06-13T05:33:25.164Z,99.99
2023-06-13T05:34:25.046Z,99.99
2023-06-13T05:35:25.020Z,99.99
2023-06-13T05:36:24.906Z,99.99
2023-06-13T05:37:24.841Z,99.99
2023-06-13T05:38:24.752Z,99.99
2023-06-13T05:39:24.659Z,99.87
2023-06-13T05:40:24.577Z,99.99
2023-06-13T05:41:24.508Z,99.99
2023-06-13T05:42:24.673Z,99.99
2023-06-13T05:43:24.370Z,98.52
2023-06-13T05:44:26.969Z,99.53
2023-06-13T05:45:24.444Z,98.19
2023-06-13T05:46:24.117Z,98.47
2023-06-13T05:47:24.097Z,98.38
2023-06-13T05:48:24.041Z,98.00
2023-06-13T05:49:23.887Z,97.61
2023-06-13T05:50:23.808Z,96.89
2023-06-13T05:51:23.734Z,94.98
2023-06-13T05:52:24.493Z,95.56
2023-06-13T05:53:23.611Z,94.50
2023-06-13T05:54:23.510Z,93.73
2023-06-13T05:55:23.429Z,93.44
2023-06-13T05:56:23.348Z,93.16
2023-06-13T05:57:23.295Z,91.28
2023-06-13T05:58:23.197Z,89.56
2023-06-13T05:59:23.117Z,88.12
2023-06-13T06:00:23.040Z,87.84
2023-06-13T06:01:22.972Z,88.17
2023-06-13T06:02:23.150Z,87.30
2023-06-13T06:03:22.892Z,86.34
2023-06-13T06:04:22.798Z,86.92
2023-06-13T06:05:22.656Z,87.98
2023-06-13T06:06:22.581Z,86.54
2023-06-13T06:07:22.528Z,85.96
2023-06-13T06:08:22.428Z,86.96
2023-06-13T06:09:24.700Z,86.29
2023-06-13T06:10:22.275Z,85.52
2023-06-13T06:11:22.208Z,85.42
2023-06-13T06:12:22.126Z,85.62
2023-06-13T06:13:22.253Z,86.10
2023-06-13T06:14:21.972Z,86.48
2023-06-13T06:15:21.918Z,86.19
2023-06-13T06:16:21.817Z,85.33
2023-06-13T06:17:21.860Z,85.33
2023-06-13T06:18:21.899Z,86.10
2023-06-13T06:19:21.597Z,87.05
2023-06-13T06:20:21.546Z,85.04
2023-06-13T06:21:21.444Z,83.70
2023-06-13T06:22:21.367Z,84.85
2023-06-13T06:23:21.295Z,84.66
2023-06-13T06:24:21.258Z,82.84
2023-06-13T06:25:24.365Z,82.68
2023-06-13T06:26:21.080Z,83.84
2023-06-13T06:27:20.994Z,83.07
2023-06-13T06:28:20.909Z,81.53
2023-06-13T06:29:20.838Z,80.32
2023-06-13T06:30:20.756Z,80.71
2023-06-13T06:31:20.833Z,80.32
2023-06-13T06:32:20.629Z,80.04
2023-06-13T06:33:20.535Z,80.99
2023-06-13T06:34:20.455Z,80.36
2023-06-13T06:35:20.380Z,80.36
2023-06-13T06:36:20.503Z,79.55
2023-06-13T06:37:20.479Z,79.79
2023-06-13T06:38:20.158Z,80.94
2023-06-13T06:39:20.081Z,81.61
2023-06-13T06:40:20.004Z,82.19
2023-06-13T06:41:19.960Z,81.42
2023-06-13T06:42:19.852Z,81.42
2023-06-13T06:43:19.781Z,81.61
2023-06-13T06:44:29.036Z,81.52
2023-06-13T06:45:19.632Z,78.92
2023-06-13T06:46:19.601Z,78.53
2023-06-13T06:47:19.478Z,80.17
2023-06-13T06:48:19.416Z,80.65
2023-06-13T06:49:19.326Z,81.61
2023-06-13T06:50:19.256Z,79.25
2023-06-13T06:51:19.182Z,78.73
2023-06-13T06:52:19.101Z,78.77
2023-06-13T06:53:19.035Z,79.53
2023-06-13T06:54:18.956Z,80.02
2023-06-13T06:55:18.876Z,80.69
2023-06-13T06:56:18.807Z,79.25
2023-06-13T06:57:20.520Z,78.77
2023-06-13T06:58:18.656Z,78.58
2023-06-13T06:59:18.578Z,79.25
2023-06-13T07:00:18.811Z,80.30
2023-06-13T07:01:18.443Z,78.77
2023-06-13T07:02:18.704Z,79.82
2023-06-13T07:03:18.297Z,78.23
2023-06-13T07:04:18.222Z,76.69
2023-06-13T07:05:18.129Z,75.73
2023-06-13T07:06:18.060Z,76.98
2023-06-13T07:07:17.990Z,76.21
2023-06-13T07:08:17.941Z,76.01
2023-06-13T07:09:17.941Z,76.40
2023-06-13T07:10:18.027Z,75.54
2023-06-13T07:11:17.873Z,73.94
2023-06-13T07:12:17.618Z,73.94
2023-06-13T07:13:17.575Z,72.55
2023-06-13T07:14:17.463Z,73.46
2023-06-13T07:15:17.394Z,73.36
2023-06-13T07:16:17.358Z,72.78
2023-06-13T07:17:17.251Z,71.91
2023-06-13T07:18:17.172Z,71.91
2023-06-13T07:19:17.467Z,73.55
2023-06-13T07:20:17.230Z,73.65
2023-06-13T07:21:16.956Z,72.78
2023-06-13T07:22:17.070Z,73.07
2023-06-13T07:23:16.799Z,72.11
2023-06-13T07:24:16.749Z,72.01
2023-06-13T07:25:16.662Z,70.86
2023-06-13T07:26:16.574Z,70.60
2023-06-13T07:27:16.502Z,70.79
2023-06-13T07:28:16.831Z,70.12
2023-06-13T07:29:16.406Z,71.08
2023-06-13T07:30:16.624Z,70.79
2023-06-13T07:31:16.213Z,68.68
2023-06-13T07:32:16.388Z,68.54
2023-06-13T07:33:16.106Z,68.84
2023-06-13T07:34:34.649Z,69.22
2023-06-13T07:35:16.056Z,69.45
2023-06-13T07:36:15.835Z,69.54
2023-06-13T07:37:15.758Z,69.25
2023-06-13T07:38:15.685Z,68.96
2023-06-13T07:39:16.108Z,67.90
2023-06-13T07:40:15.918Z,68.38
2023-06-13T07:41:15.480Z,68.58
2023-06-13T07:42:15.391Z,68.38
2023-06-13T07:43:15.314Z,68.38
2023-06-13T07:44:15.261Z,68.38
2023-06-13T07:45:15.184Z,67.61
2023-06-13T07:46:15.227Z,68.10
2023-06-13T07:47:15.030Z,68.77
2023-06-13T07:48:14.998Z,67.94
2023-06-13T07:49:14.866Z,69.67
2023-06-13T07:50:15.125Z,69.87
2023-06-13T07:51:14.721Z,69.61
2023-06-13T07:52:14.645Z,67.46
2023-06-13T07:53:14.575Z,67.84
2023-06-13T07:54:14.495Z,66.01
2023-06-13T07:55:14.821Z,66.11
2023-06-13T07:56:14.347Z,65.81
2023-06-13T07:57:33.646Z,66.27
2023-06-13T07:58:14.198Z,68.04
2023-06-13T07:59:14.129Z,68.80
2023-06-13T08:00:14.712Z,69.09
2023-06-13T08:01:14.022Z,65.43
2023-06-13T08:02:13.917Z,65.63
2023-06-13T08:03:14.006Z,66.11
2023-06-13T08:04:13.922Z,65.91
2023-06-13T08:05:13.774Z,66.20
2023-06-13T08:06:13.609Z,67.07
2023-06-13T08:07:13.539Z,65.72
2023-06-13T08:08:13.461Z,65.43
2023-06-13T08:09:13.448Z,65.63
2023-06-13T08:10:13.617Z,65.43
2023-06-13T08:11:13.242Z,65.72
2023-06-13T08:12:13.166Z,67.07
2023-06-13T08:13:13.121Z,66.97
2023-06-13T08:14:13.020Z,67.74
2023-06-13T08:15:12.944Z,67.20
2023-06-13T08:16:12.880Z,67.00
2023-06-13T08:17:12.816Z,66.43
2023-06-13T08:18:12.728Z,65.08
2023-06-13T08:19:13.050Z,65.75
2023-06-13T08:20:12.972Z,65.66
2023-06-13T08:21:12.906Z,64.98
2023-06-13T08:22:12.435Z,65.95
2023-06-13T08:23:12.357Z,67.78
2023-06-13T08:24:12.340Z,65.85
2023-06-13T08:25:12.230Z,67.78
2023-06-13T08:26:12.137Z,65.78
2023-06-13T08:27:12.114Z,63.67
2023-06-13T08:28:11.987Z,63.73
2023-06-13T08:29:11.975Z,63.82
2023-06-13T08:30:11.998Z,63.54
2023-06-13T08:31:39.601Z,65.85
2023-06-13T08:32:11.782Z,65.75
2023-06-13T08:33:11.959Z,64.11
2023-06-13T08:34:13.463Z,64.50
2023-06-13T08:35:11.658Z,63.73
2023-06-13T08:36:27.242Z,63.54
2023-06-13T08:37:11.332Z,62.96
2023-06-13T08:38:11.261Z,63.63
2023-06-13T08:39:11.269Z,63.63
2023-06-13T08:40:11.631Z,63.63
2023-06-13T08:41:11.045Z,63.54
2023-06-13T08:42:10.961Z,63.92
2023-06-13T08:43:10.894Z,65.85
2023-06-13T08:44:10.825Z,65.59
2023-06-13T08:45:10.739Z,65.20
2023-06-13T08:46:10.706Z,64.89
2023-06-13T08:47:27.198Z,65.50
2023-06-13T08:48:10.763Z,65.40
2023-06-13T08:49:10.469Z,65.59
2023-06-13T08:50:10.371Z,63.76
2023-06-13T08:51:10.501Z,64.63
2023-06-13T08:52:10.229Z,65.98
2023-06-13T08:53:10.158Z,64.43
2023-06-13T08:54:11.893Z,63.28
2023-06-13T08:55:31.121Z,63.47
2023-06-13T08:56:10.051Z,64.86
2023-06-13T08:57:09.861Z,63.50
2023-06-13T08:58:09.783Z,63.67
2023-06-13T08:59:09.768Z,63.09
2023-06-13T09:00:09.634Z,64.76
2023-06-13T09:01:09.580Z,64.08
2023-06-13T09:02:09.511Z,63.50
2023-06-13T09:03:09.468Z,62.92
2023-06-13T09:04:09.501Z,63.79
2023-06-13T09:05:09.303Z,62.44
2023-06-13T09:06:09.203Z,62.82
2023-06-13T09:07:09.159Z,63.98
2023-06-13T09:08:29.388Z,63.89
2023-06-13T09:09:08.992Z,63.98
2023-06-13T09:10:08.906Z,63.31
2023-06-13T09:11:08.833Z,63.79
2023-06-13T09:12:08.856Z,62.15
2023-06-13T09:13:08.700Z,62.54
2023-06-13T09:14:08.977Z,62.44
2023-06-13T09:15:08.628Z,62.73
2023-06-13T09:16:08.481Z,62.63
2023-06-13T09:17:08.840Z,61.19
2023-06-13T09:18:08.324Z,61.09
2023-06-13T09:19:08.249Z,61.38
2023-06-13T09:20:08.188Z,60.89
2023-06-13T09:21:08.574Z,61.77
2023-06-13T09:22:08.033Z,62.05
2023-06-13T09:23:07.960Z,61.93
2023-06-13T09:24:07.933Z,63.02
2023-06-13T09:25:07.810Z,63.70
2023-06-13T09:26:07.736Z,63.60
2023-06-13T09:27:07.723Z,63.89
2023-06-13T09:28:07.599Z,63.05
2023-06-13T09:29:21.313Z,62.28
2023-06-13T09:30:07.443Z,62.76
2023-06-13T09:31:07.446Z,63.73
2023-06-13T09:32:07.653Z,62.37
2023-06-13T09:33:07.228Z,61.89
2023-06-13T09:34:07.171Z,62.47
2023-06-13T09:35:07.080Z,62.47
2023-06-13T09:36:07.112Z,62.66
2023-06-13T09:37:06.955Z,63.15
2023-06-13T09:38:06.865Z,63.70
2023-06-13T09:39:06.800Z,63.89
2023-06-13T09:41:06.642Z,61.92
2023-06-13T09:42:06.579Z,62.76
2023-06-13T09:43:06.503Z,62.28
2023-06-13T09:44:06.431Z,62.86
2023-06-13T09:45:06.408Z,62.86
2023-06-13T09:46:06.303Z,63.82
2023-06-13T09:47:06.204Z,64.40
2023-06-13T09:48:06.220Z,63.92
2023-06-13T09:49:06.080Z,61.89
2023-06-13T09:50:05.987Z,62.63
2023-06-13T09:51:05.956Z,63.50
2023-06-13T09:52:05.902Z,64.59
2023-06-13T09:53:05.872Z,63.66
2023-06-13T09:54:05.715Z,61.99
2023-06-13T10:18:39.307Z,59.41
2023-06-13T10:19:39.213Z,60.47
2023-06-13T10:34:38.164Z,57.89
2023-06-13T11:30:52.557Z,53.23
2023-06-13T11:31:52.555Z,52.58
2023-06-13T11:32:52.493Z,52.49
2023-06-13T11:33:52.535Z,50.55
2023-06-13T11:34:52.347Z,50.35
2023-06-13T11:35:52.197Z,50.45
2023-06-13T11:36:52.165Z,50.77
2023-06-13T11:37:52.047Z,51.84
2023-06-13T11:38:51.982Z,50.19
2023-06-13T11:41:14.419Z,49.82
2023-06-13T11:42:14.349Z,48.27
2023-06-13T11:43:14.283Z,48.59
2023-06-13T11:44:14.218Z,50.58
2023-06-13T11:45:14.205Z,49.44
2023-06-13T11:46:14.200Z,48.47
2023-06-13T11:47:14.339Z,47.96
2023-06-13T11:49:13.951Z,48.41
2023-06-13T11:50:14.695Z,47.96
2023-06-13T11:51:16.372Z,46.50
2023-06-13T11:53:13.960Z,46.23
2023-06-13T11:54:11.274Z,45.55
2023-06-13T11:55:11.202Z,47.81
2023-06-13T11:56:53.954Z,45.15
2023-06-13T11:57:53.561Z,45.54
2023-06-13T11:58:53.561Z,43.50
2023-06-13T11:59:53.432Z,44.18
2023-06-13T12:00:53.422Z,44.74
2023-06-13T12:02:42.503Z,44.26
2023-06-13T12:03:40.887Z,43.92
2023-06-13T12:04:40.748Z,45.79
2023-06-13T12:05:40.618Z,44.94
2023-06-13T12:06:40.554Z,44.82
2023-06-13T12:07:40.494Z,45.25
2023-06-13T12:08:40.435Z,44.40
2023-06-13T12:09:40.369Z,43.13
2023-06-13T12:10:40.309Z,42.57
2023-06-13T12:11:40.280Z,41.99
2023-06-13T12:12:40.183Z,41.75
2023-06-13T12:13:40.176Z,42.04
2023-06-13T12:15:40.040Z,44.43
2023-06-13T12:17:40.546Z,45.24
2023-06-13T12:18:39.839Z,45.67
2023-06-13T12:19:39.756Z,44.99
2023-06-13T12:20:39.693Z,44.82
2023-06-13T12:21:39.633Z,44.35
2023-06-13T12:22:39.583Z,43.60
2023-06-13T12:24:37.999Z,43.59
2023-06-13T12:25:37.838Z,45.85
2023-06-13T12:26:37.777Z,42.94
2023-06-13T12:27:37.915Z,41.67
2023-06-13T12:28:37.652Z,42.75
2023-06-13T12:29:37.590Z,43.14
2023-06-13T12:30:37.546Z,41.09
2023-06-13T12:31:37.607Z,40.21
2023-06-13T12:32:38.676Z,41.28
2023-06-13T12:35:37.743Z,42.16
2023-06-13T12:36:37.211Z,42.69
2023-06-13T12:38:38.272Z,41.28
2023-06-13T12:39:37.007Z,40.29
2023-06-13T12:40:36.999Z,40.03
2023-06-13T12:41:37.519Z,40.83
2023-06-13T12:42:39.444Z,40.16
2023-06-13T12:43:36.875Z,40.56
2023-06-13T12:44:36.773Z,41.67
2023-06-13T12:45:36.643Z,41.77
2023-06-13T12:46:36.604Z,41.19
2023-06-13T12:47:36.571Z,40.01
2023-06-13T12:48:36.466Z,40.13
2023-06-13T12:49:36.411Z,40.13
2023-06-13T12:50:36.358Z,39.29
2023-06-13T12:51:36.310Z,40.47
2023-06-13T12:52:36.233Z,41.75
2023-06-13T12:53:36.322Z,41.99
2023-06-13T12:54:36.111Z,41.25
2023-06-13T12:55:36.049Z,40.80
2023-06-13T12:56:36.000Z,39.16
2023-06-13T12:57:35.936Z,39.06
2023-06-13T12:58:35.888Z,39.33
2023-06-13T12:59:35.814Z,38.77
2023-06-13T13:00:35.757Z,39.10
2023-06-13T13:01:36.174Z,37.91
2023-06-13T13:03:35.675Z,38.01
2023-06-13T13:04:36.537Z,37.02
2023-06-13T13:05:35.463Z,39.69
2023-06-13T13:06:35.406Z,38.82
2023-06-13T13:07:35.374Z,37.06
2023-06-13T13:08:35.289Z,37.43
2023-06-13T13:09:35.275Z,36.86
2023-06-13T13:10:35.307Z,39.14
2023-06-13T13:11:35.383Z,40.55
2023-06-13T13:15:36.674Z,38.34
2023-06-13T13:17:38.831Z,38.02
2023-06-13T13:18:34.743Z,38.12
2023-06-13T13:19:34.649Z,37.41
2023-06-13T13:20:34.591Z,38.49
2023-06-13T13:21:34.531Z,38.40
2023-06-13T13:22:34.500Z,38.15
2023-06-13T13:23:34.446Z,39.29
2023-06-13T13:24:36.516Z,40.21
2023-06-13T13:25:34.298Z,39.47
2023-06-13T13:26:34.251Z,39.90
2023-06-13T13:27:34.180Z,41.19
2023-06-13T13:28:34.156Z,38.26
2023-06-13T13:29:34.066Z,39.62
2023-06-13T13:30:34.336Z,39.14
2023-06-13T13:31:34.030Z,38.30
2023-06-13T13:32:33.904Z,38.10
2023-06-13T13:33:33.828Z,39.23
2023-06-13T13:34:33.773Z,39.08
2023-06-13T13:35:33.713Z,39.88
2023-06-13T13:36:33.659Z,39.23
2023-06-13T13:37:33.594Z,36.79
2023-06-13T13:38:33.565Z,36.67
2023-06-13T13:39:33.504Z,37.45
2023-06-13T13:40:33.425Z,37.79
2023-06-13T13:41:33.384Z,39.08
2023-06-13T13:42:33.310Z,39.39
2023-06-13T13:43:33.252Z,38.26
2023-06-13T13:44:33.189Z,38.69
2023-06-13T13:45:33.132Z,40.27
2023-06-13T13:46:33.076Z,39.98
2023-06-13T13:47:33.059Z,40.60
2023-06-13T13:48:33.249Z,39.67
2023-06-13T13:49:32.947Z,40.58
2023-06-13T13:50:32.845Z,39.06
2023-06-13T13:51:32.792Z,36.80
2023-06-13T13:52:32.725Z,37.12
2023-06-13T13:53:32.687Z,36.65
2023-06-13T13:54:32.619Z,37.12
2023-06-13T13:55:32.573Z,36.84
2023-06-13T13:56:32.582Z,35.65
2023-06-13T13:57:32.441Z,35.35
2023-06-13T13:58:32.381Z,35.75
2023-06-13T13:59:34.981Z,34.47
2023-06-13T14:00:32.271Z,34.94
2023-06-13T14:01:32.304Z,36.88
2023-06-13T14:02:32.333Z,35.61
2023-06-13T14:03:32.254Z,36.69
2023-06-13T14:04:32.045Z,36.44
2023-06-13T14:05:31.980Z,35.77
2023-06-13T14:06:31.992Z,35.77
2023-06-13T14:07:31.871Z,37.75
2023-06-13T14:08:31.815Z,37.87
2023-06-13T14:09:31.759Z,36.59
2023-06-13T14:10:31.734Z,37.29
2023-06-13T14:14:09.186Z,36.80
2023-06-13T14:15:09.077Z,37.06
2023-06-13T14:16:09.425Z,36.46
2023-06-13T14:17:09.406Z,36.58
2023-06-13T14:18:08.984Z,39.20
2023-06-13T14:20:08.846Z,39.53
2023-06-13T14:21:09.622Z,38.09
2023-06-13T14:22:08.912Z,36.85
2023-06-13T14:23:08.679Z,36.79
2023-06-13T14:24:12.197Z,35.21
2023-06-13T14:26:08.443Z,36.26
2023-06-13T14:27:08.937Z,37.85
2023-06-13T14:28:08.323Z,35.71
2023-06-13T14:29:08.280Z,35.79
2023-06-13T14:30:17.291Z,35.68
2023-06-13T14:31:08.153Z,36.65
2023-06-13T14:32:08.147Z,35.97
2023-06-13T14:33:08.077Z,35.48
2023-06-13T14:34:07.988Z,35.75
2023-06-13T14:35:07.923Z,35.94
2023-06-13T14:37:07.802Z,37.25
2023-06-13T14:38:07.781Z,37.37
2023-06-13T14:39:07.693Z,37.87
2023-06-13T14:40:07.634Z,36.49
2023-06-13T14:41:08.019Z,36.19
2023-06-13T14:42:07.520Z,37.21
2023-06-13T14:43:07.452Z,36.63
2023-06-13T14:44:07.517Z,35.68
2023-06-13T14:45:07.341Z,35.48
2023-06-13T14:46:07.347Z,35.01
2023-06-13T14:47:07.213Z,35.30
2023-06-13T14:48:07.784Z,35.69
2023-06-13T14:49:07.100Z,35.79
2023-06-13T14:50:07.037Z,34.41
2023-06-13T14:51:06.994Z,34.21
2023-06-13T14:52:06.920Z,34.50
2023-06-13T14:53:06.864Z,34.99
2023-06-13T14:54:06.807Z,36.85
2023-06-13T14:55:06.741Z,36.67
2023-06-13T14:56:06.682Z,38.18
2023-06-13T14:57:06.625Z,37.13
2023-06-13T14:58:06.569Z,34.98
2023-06-13T14:59:06.512Z,34.47
2023-06-13T15:00:06.463Z,35.52
2023-06-13T15:01:06.432Z,35.28
2023-06-13T15:02:06.350Z,34.41
2023-06-13T15:03:06.318Z,35.07
2023-06-13T15:04:06.214Z,35.48
2023-06-13T15:05:06.328Z,35.48
2023-06-13T15:06:06.100Z,35.91